ENRA/MQN METAR and TAF weather

Enter ICAO airport designator
Station Type Date Time Source
ENRA METAR 2019/10/18 06:50 UTC NOAA

ENRA 180650Z 35003KT 9999 VCSH FEW020 BKN040 03/M00 Q1005


Station Type Date Time Source
ENRA Decoded METAR 2019/10/18 06:50 UTC NOAA

Mo I Rana / Rossvoll, Norway (ENRA) 66-22N 014-18E 70M
Oct 18, 2019 - 02:50 AM EDT / 2019.10.18 0650 UTC
Wind: from the N (350 degrees) at 3 MPH (3 KT):0
Visibility: greater than 7 mile(s):0
Sky conditions: mostly cloudy
Weather: showers in the vicinity
Temperature: 37 F (3 C)
Dew Point: 32 F (0 C)
Relative Humidity: 80%
Pressure (altimeter): 29.68 in. Hg (1005 hPa)
ob: ENRA 180650Z 35003KT 9999 VCSH FEW020 BKN040 03/M00 Q1005
cycle: 7

Station Type Date Time Source
ENRA TAF UTC NOAA

Error!

Example: see airport list